Time;durP1;ratioP1;P1;durP2;ratioP2;P2;SDS_P1;SDS_P2;PMS_P1;PMS_P2;Temp;Humidity;BMP_temperature;BMP_pressure;BME280_temperature;BME280_humidity;BME280_pressure;Samples;Min_cycle;Max_cycle;Signal;HPM_P1;HPM_P2
2021/10/13 00:01:17;;;;;;;0.67;0.67;;;5.60;99.90;;;;;;5091539;28;20197;-70
2021/10/13 00:03:42;;;;;;;1.63;0.93;;;5.60;99.90;;;;;;5091571;28;20197;-70
2021/10/13 00:06:07;;;;;;;3.07;0.83;;;5.60;99.90;;;;;;5091561;28;20456;-70
2021/10/13 00:08:33;;;;;;;0.70;0.70;;;5.60;99.90;;;;;;5091765;28;20178;-70
2021/10/13 00:10:58;;;;;;;0.90;0.90;;;5.50;99.90;;;;;;5091958;28;20185;-70
2021/10/13 00:13:24;;;;;;;2.23;2.10;;;5.50;99.90;;;;;;5091916;28;20257;-70
2021/10/13 00:15:49;;;;;;;1.53;1.10;;;5.60;99.90;;;;;;5091542;28;20165;-70
2021/10/13 00:18:15;;;;;;;0.80;0.80;;;5.60;99.90;;;;;;5091598;28;20170;-69
2021/10/13 00:20:41;;;;;;;0.77;0.77;;;5.60;99.90;;;;;;5083665;28;20263;-69
2021/10/13 00:23:06;;;;;;;1.47;0.80;;;5.60;99.90;;;;;;5091734;28;20530;-69
2021/10/13 00:25:31;;;;;;;1.20;0.90;;;5.50;99.90;;;;;;5091592;28;20177;-69
2021/10/13 00:27:57;;;;;;;1.10;0.90;;;5.50;99.90;;;;;;5091636;28;20186;-69
2021/10/13 00:30:22;;;;;;;1.20;0.93;;;5.50;99.90;;;;;;5090908;28;20662;-69
2021/10/13 00:32:48;;;;;;;1.07;0.70;;;5.50;99.90;;;;;;5091892;28;20179;-70
2021/10/13 00:35:13;;;;;;;1.60;1.30;;;5.50;99.90;;;;;;5090094;28;20173;-69
2021/10/13 00:37:39;;;;;;;0.83;0.83;;;5.50;99.90;;;;;;5091143;28;20221;-70
2021/10/13 00:40:06;;;;;;;0.60;0.60;;;5.40;99.90;;;;;;5090976;28;20578;-69
2021/10/13 00:42:31;;;;;;;1.43;1.00;;;5.50;99.90;;;;;;5091073;28;20174;-70
2021/10/13 00:44:57;;;;;;;0.93;0.87;;;5.40;99.90;;;;;;5090816;28;20741;-70
2021/10/13 00:47:22;;;;;;;1.20;1.10;;;5.30;99.90;;;;;;5091608;28;20180;-70
2021/10/13 00:49:48;;;;;;;1.00;1.00;;;5.20;99.90;;;;;;5090946;28;20582;-71
2021/10/13 00:52:16;;;;;;;1.00;0.90;;;5.20;99.90;;;;;;5090717;28;20691;-70
2021/10/13 00:54:43;;;;;;;3.63;1.10;;;5.30;99.90;;;;;;5090840;28;20435;-70
2021/10/13 00:57:08;;;;;;;1.50;1.40;;;5.30;99.90;;;;;;5090813;28;20435;-70
2021/10/13 00:59:34;;;;;;;1.57;1.00;;;5.20;99.90;;;;;;5090642;28;20446;-70
2021/10/13 01:02:03;;;;;;;1.77;0.90;;;5.20;99.90;;;;;;5090992;28;20161;-70
2021/10/13 01:05:06;;;;;;;1.10;0.90;;;5.30;99.90;;;;;;5092794;28;20157;-70
2021/10/13 01:08:01;;;;;;;0.87;0.87;;;5.30;99.90;;;;;;5094379;28;20898;-69
2021/10/13 01:10:42;;;;;;;1.00;0.90;;;5.30;99.90;;;;;;5094701;28;20743;-70
2021/10/13 01:13:34;;;;;;;1.37;1.00;;;5.30;99.90;;;;;;5093360;28;20411;-70
2021/10/13 01:16:14;;;;;;;1.07;0.87;;;5.30;99.90;;;;;;5094067;28;20424;-69
2021/10/13 01:18:52;;;;;;;1.00;0.90;;;5.30;99.90;;;;;;5094274;28;20430;-70
2021/10/13 01:21:41;;;;;;;0.90;0.80;;;5.30;99.90;;;;;;5093117;28;20458;-69
2021/10/13 01:24:46;;;;;;;0.73;0.73;;;5.10;99.90;;;;;;5073183;28;20479;-70
2021/10/13 01:27:33;;;;;;;1.57;0.90;;;5.10;99.90;;;;;;5082174;28;20411;-70
2021/10/13 01:30:01;;;;;;;1.03;0.90;;;5.10;99.90;;;;;;5093983;28;20443;-70
2021/10/13 01:32:30;;;;;;;0.70;0.70;;;5.00;99.90;;;;;;5093777;28;20437;-69
2021/10/13 01:34:58;;;;;;;1.00;0.80;;;5.00;99.90;;;;;;5093609;28;20411;-70
2021/10/13 01:37:34;;;;;;;1.63;1.53;;;5.10;99.90;;;;;;5093900;28;20427;-69
2021/10/13 01:40:01;;;;;;;2.03;0.87;;;5.10;99.90;;;;;;5094174;28;20462;-70
2021/10/13 01:42:29;;;;;;;1.00;0.90;;;5.10;99.90;;;;;;5093674;28;20432;-70
2021/10/13 01:44:58;;;;;;;0.90;0.90;;;5.10;99.90;;;;;;5086744;28;20416;-70
2021/10/13 01:47:25;;;;;;;0.97;0.80;;;5.00;99.90;;;;;;5073352;28;20424;-69
2021/10/13 01:49:55;;;;;;;0.93;0.90;;;5.10;99.90;;;;;;5073492;28;20493;-71
2021/10/13 01:52:23;;;;;;;2.40;1.10;;;5.00;99.90;;;;;;5073376;28;20404;-68
2021/10/13 01:54:49;;;;;;;1.33;1.23;;;5.10;99.90;;;;;;5073111;28;20408;-69
2021/10/13 01:57:16;;;;;;;1.57;1.00;;;4.90;99.90;;;;;;5073195;28;20416;-69
2021/10/13 01:59:44;;;;;;;0.80;0.80;;;4.90;99.90;;;;;;5073134;28;20456;-69
2021/10/13 02:02:11;;;;;;;1.00;0.90;;;5.00;99.90;;;;;;5073302;28;20405;-69
2021/10/13 02:04:42;;;;;;;1.07;0.97;;;4.90;99.90;;;;;;5073195;28;20413;-69
2021/10/13 02:07:10;;;;;;;1.47;1.37;;;4.90;99.90;;;;;;5073182;28;20421;-69
2021/10/13 02:09:36;;;;;;;0.63;0.63;;;4.80;99.90;;;;;;5073322;28;20408;-69
2021/10/13 02:12:04;;;;;;;0.90;0.80;;;4.80;99.90;;;;;;5073140;28;20405;-69
2021/10/13 02:14:32;;;;;;;0.87;0.80;;;4.70;99.90;;;;;;5073037;28;20477;-69
2021/10/13 02:16:59;;;;;;;0.60;0.60;;;4.70;99.90;;;;;;5072444;28;20459;-69
2021/10/13 02:19:27;;;;;;;0.70;0.70;;;4.70;99.90;;;;;;5072864;28;20556;-69
2021/10/13 02:21:55;;;;;;;0.90;0.70;;;4.80;99.90;;;;;;5072625;28;20415;-69
2021/10/13 02:24:43;;;;;;;0.80;0.80;;;4.80;99.90;;;;;;5072791;28;20774;-69
2021/10/13 02:27:12;;;;;;;0.70;0.70;;;4.70;99.90;;;;;;5072923;28;20424;-69
2021/10/13 02:29:38;;;;;;;0.87;0.87;;;4.80;99.90;;;;;;5072810;28;20405;-69
2021/10/13 02:32:06;;;;;;;1.10;1.00;;;4.70;99.90;;;;;;5072652;28;20488;-69
2021/10/13 02:34:31;;;;;;;0.90;0.90;;;4.70;99.90;;;;;;5072291;28;20269;-69
2021/10/13 02:36:57;;;;;;;1.00;0.80;;;4.70;99.90;;;;;;5072400;28;21002;-69
2021/10/13 02:39:23;;;;;;;0.97;0.97;;;4.70;99.90;;;;;;5072332;28;20241;-69
2021/10/13 02:41:48;;;;;;;0.60;0.60;;;4.70;99.90;;;;;;5072371;28;20664;-70
2021/10/13 02:44:14;;;;;;;4.87;1.13;;;4.70;99.90;;;;;;5072164;28;20167;-70
2021/10/13 02:46:48;;;;;;;1.67;0.83;;;4.70;99.90;;;;;;5072672;28;20194;-70
2021/10/13 02:49:27;;;;;;;3.40;1.10;;;4.70;99.90;;;;;;5072236;28;20428;-69
2021/10/13 02:52:16;;;;;;;0.67;0.67;;;4.70;99.90;;;;;;5072483;28;20412;-70
2021/10/13 02:55:15;;;;;;;0.90;0.90;;;4.70;99.90;;;;;;5071983;28;20835;-69
2021/10/13 02:57:46;;;;;;;1.23;1.10;;;4.70;99.90;;;;;;5064227;28;20436;-70
2021/10/13 03:00:13;;;;;;;1.23;1.13;;;4.70;99.90;;;;;;5072545;28;20505;-70
2021/10/13 03:03:05;;;;;;;1.07;0.90;;;4.60;99.90;;;;;;5072595;28;20483;-70
2021/10/13 03:05:31;;;;;;;1.33;0.90;;;4.70;99.90;;;;;;5071251;28;20911;-70
2021/10/13 03:08:01;;;;;;;0.90;0.90;;;4.70;99.90;;;;;;5071623;28;20421;-70
2021/10/13 03:10:28;;;;;;;1.20;0.80;;;4.60;99.90;;;;;;5072010;28;20495;-70
2021/10/13 03:12:57;;;;;;;1.00;0.90;;;4.60;99.90;;;;;;5071729;28;20419;-70
2021/10/13 03:15:25;;;;;;;1.03;0.80;;;4.70;99.90;;;;;;5071689;28;20409;-70
2021/10/13 03:17:56;;;;;;;1.23;1.13;;;4.60;99.90;;;;;;5071953;28;20436;-70
2021/10/13 03:20:24;;;;;;;1.37;0.70;;;4.60;99.90;;;;;;5071648;28;20460;-69
2021/10/13 03:22:53;;;;;;;1.43;0.90;;;4.60;99.90;;;;;;5070870;28;20408;-70
2021/10/13 03:25:30;;;;;;;0.97;0.93;;;4.60;99.90;;;;;;5071442;28;20937;-69
2021/10/13 03:28:01;;;;;;;1.00;0.90;;;4.50;99.90;;;;;;5071394;28;20435;-69
2021/10/13 03:30:27;;;;;;;1.90;1.20;;;4.50;99.90;;;;;;5071625;28;20444;-70
2021/10/13 03:32:53;;;;;;;0.80;0.80;;;4.50;99.90;;;;;;5071429;28;20413;-69
2021/10/13 03:35:23;;;;;;;1.10;1.00;;;4.50;99.90;;;;;;5071461;28;20465;-69
2021/10/13 03:37:49;;;;;;;0.93;0.90;;;4.50;99.90;;;;;;5071390;28;20229;-69
2021/10/13 03:40:15;;;;;;;1.23;0.87;;;4.50;99.90;;;;;;5071639;28;20533;-68
2021/10/13 03:42:41;;;;;;;1.17;0.90;;;4.60;99.90;;;;;;5071773;28;20166;-71
2021/10/13 03:45:06;;;;;;;0.90;0.90;;;4.60;99.90;;;;;;5069831;28;20415;-71
2021/10/13 03:47:32;;;;;;;1.37;1.20;;;4.50;99.90;;;;;;5071185;28;20227;-71
2021/10/13 03:49:57;;;;;;;1.20;1.10;;;4.50;99.90;;;;;;5071411;28;20166;-70
2021/10/13 03:52:23;;;;;;;0.73;0.73;;;4.40;99.90;;;;;;5071363;28;20800;-71
2021/10/13 03:54:48;;;;;;;0.93;0.83;;;4.30;99.90;;;;;;5071308;28;20516;-70
2021/10/13 03:57:14;;;;;;;0.80;0.80;;;4.50;99.90;;;;;;5071284;28;20190;-70
2021/10/13 03:59:39;;;;;;;1.37;0.90;;;4.40;99.90;;;;;;5071023;28;20213;-70
2021/10/13 04:02:05;;;;;;;1.30;1.20;;;4.50;99.90;;;;;;5071104;28;20162;-70
2021/10/13 04:04:30;;;;;;;1.53;1.30;;;4.40;99.90;;;;;;5070991;28;20178;-70
2021/10/13 04:06:55;;;;;;;1.47;1.37;;;4.40;99.90;;;;;;5086269;28;20193;-70
2021/10/13 04:09:21;;;;;;;1.50;1.40;;;4.30;99.90;;;;;;5091419;28;20173;-70
2021/10/13 04:11:46;;;;;;;1.10;1.03;;;4.40;99.90;;;;;;5091372;28;20180;-71
2021/10/13 04:14:12;;;;;;;1.20;1.10;;;4.30;99.90;;;;;;5091149;28;20165;-70
2021/10/13 04:16:37;;;;;;;1.30;1.10;;;4.40;99.90;;;;;;5091100;28;20193;-70
2021/10/13 04:19:03;;;;;;;1.13;1.03;;;4.50;99.90;;;;;;5091262;28;20193;-71
2021/10/13 04:21:28;;;;;;;1.37;1.27;;;4.50;99.90;;;;;;5091346;28;20200;-71
2021/10/13 04:23:54;;;;;;;1.93;1.47;;;4.60;99.90;;;;;;5091319;28;20192;-71
2021/10/13 04:26:19;;;;;;;3.70;2.10;;;4.70;99.90;;;;;;5091251;28;20182;-70
2021/10/13 04:28:46;;;;;;;1.83;1.10;;;4.70;99.90;;;;;;5091264;28;20740;-71
2021/10/13 04:31:11;;;;;;;1.40;1.30;;;4.70;99.90;;;;;;5091084;28;20636;-69
2021/10/13 04:33:37;;;;;;;2.30;1.93;;;4.80;99.90;;;;;;5091122;28;20403;-71
2021/10/13 04:36:02;;;;;;;1.77;1.67;;;4.80;99.90;;;;;;5091223;28;20201;-71
2021/10/13 04:38:28;;;;;;;2.20;1.20;;;4.90;99.90;;;;;;5091854;28;20253;-71
2021/10/13 04:40:53;;;;;;;1.43;1.33;;;4.90;99.90;;;;;;5095155;28;20232;-71
2021/10/13 04:43:19;;;;;;;1.67;1.57;;;4.90;99.90;;;;;;5095066;28;20170;-71
2021/10/13 04:45:44;;;;;;;1.73;1.53;;;4.90;99.90;;;;;;5095440;28;20162;-70
2021/10/13 04:48:10;;;;;;;1.43;1.33;;;5.00;99.90;;;;;;5095559;28;20240;-71
2021/10/13 04:50:35;;;;;;;1.90;1.80;;;5.00;99.90;;;;;;5095189;28;20584;-71
2021/10/13 04:53:01;;;;;;;1.30;1.20;;;5.00;99.90;;;;;;5095111;28;20165;-71
2021/10/13 04:55:26;;;;;;;1.40;1.30;;;5.10;99.90;;;;;;5095401;28;20226;-71
2021/10/13 04:57:52;;;;;;;1.20;1.10;;;5.10;99.90;;;;;;5094819;28;20181;-70
2021/10/13 05:00:17;;;;;;;1.77;1.67;;;5.10;99.90;;;;;;5094824;28;20272;-71
2021/10/13 05:02:43;;;;;;;1.30;1.17;;;5.10;99.90;;;;;;5094535;28;20166;-71
2021/10/13 05:05:08;;;;;;;1.90;1.57;;;5.10;99.90;;;;;;5094712;28;20634;-71
2021/10/13 05:07:34;;;;;;;1.30;1.20;;;5.10;99.90;;;;;;5094807;28;20178;-71
2021/10/13 05:09:59;;;;;;;1.03;1.00;;;5.10;99.90;;;;;;5094672;28;20172;-71
2021/10/13 05:12:25;;;;;;;1.63;1.10;;;5.00;99.90;;;;;;5094672;28;20663;-71
2021/10/13 05:14:50;;;;;;;1.10;0.97;;;5.00;99.90;;;;;;5094466;28;20242;-71
2021/10/13 05:17:16;;;;;;;1.40;1.30;;;5.00;99.90;;;;;;5094435;28;20190;-71
2021/10/13 05:19:41;;;;;;;1.70;1.27;;;4.90;99.90;;;;;;5094167;28;20205;-71
2021/10/13 05:22:07;;;;;;;2.13;1.97;;;4.90;99.90;;;;;;5094625;28;20506;-71
2021/10/13 05:24:33;;;;;;;2.60;1.40;;;4.90;99.90;;;;;;5094368;28;20172;-71
2021/10/13 05:26:58;;;;;;;1.23;1.13;;;4.80;99.90;;;;;;5094260;28;20431;-71
2021/10/13 05:29:24;;;;;;;2.03;1.13;;;4.80;99.90;;;;;;5094109;28;20161;-71
2021/10/13 05:31:49;;;;;;;2.30;1.97;;;4.80;99.90;;;;;;5094022;28;20170;-71
2021/10/13 05:34:15;;;;;;;2.00;1.80;;;4.70;99.90;;;;;;5093911;28;20287;-71
2021/10/13 05:36:40;;;;;;;1.83;1.73;;;4.80;99.90;;;;;;5093888;28;20330;-71
2021/10/13 05:39:06;;;;;;;1.80;1.70;;;4.70;99.90;;;;;;5094129;28;20431;-71
2021/10/13 05:41:31;;;;;;;1.83;1.73;;;4.70;99.90;;;;;;5093842;28;20201;-71
2021/10/13 05:43:56;;;;;;;2.37;1.90;;;4.70;99.90;;;;;;5093795;28;20181;-71
2021/10/13 05:46:22;;;;;;;2.50;1.97;;;4.70;99.90;;;;;;5093912;28;20197;-71
2021/10/13 05:48:47;;;;;;;4.00;2.53;;;4.80;99.90;;;;;;5093900;28;20223;-71
2021/10/13 05:51:13;;;;;;;3.33;3.00;;;4.90;99.90;;;;;;5093544;28;20173;-71
2021/10/13 05:53:39;;;;;;;2.37;2.23;;;4.90;99.90;;;;;;5093769;28;20656;-71
2021/10/13 05:56:04;;;;;;;2.60;2.40;;;4.90;99.90;;;;;;5093685;28;20209;-71
2021/10/13 05:58:30;;;;;;;4.60;2.07;;;5.00;99.90;;;;;;5093914;28;20529;-70
2021/10/13 06:00:56;;;;;;;2.10;1.90;;;5.10;99.90;;;;;;5093713;28;20660;-70
2021/10/13 06:03:21;;;;;;;3.43;2.70;;;5.10;99.90;;;;;;5093979;28;20406;-70
2021/10/13 06:05:47;;;;;;;2.73;2.13;;;5.20;99.90;;;;;;5093857;28;20640;-70
2021/10/13 06:08:13;;;;;;;2.13;1.93;;;5.20;99.90;;;;;;5093759;28;20169;-71
2021/10/13 06:10:39;;;;;;;3.03;2.07;;;5.20;99.90;;;;;;5094231;28;20457;-70
2021/10/13 06:13:04;;;;;;;2.33;2.13;;;5.30;99.90;;;;;;5093706;28;20906;-70
2021/10/13 06:15:34;;;;;;;2.37;1.83;;;5.30;99.90;;;;;;5093495;28;20180;-70
2021/10/13 06:18:04;;;;;;;1.90;1.70;;;5.30;99.90;;;;;;5093432;28;20667;-71
2021/10/13 06:20:29;;;;;;;3.37;2.03;;;5.40;99.90;;;;;;5093690;28;20447;-71
2021/10/13 06:22:55;;;;;;;2.17;1.50;;;5.40;99.90;;;;;;5093508;28;20400;-71
2021/10/13 06:25:20;;;;;;;2.93;2.63;;;5.50;99.90;;;;;;5093670;28;20162;-72
2021/10/13 06:27:46;;;;;;;2.27;1.90;;;5.60;99.90;;;;;;5093925;28;20239;-70
2021/10/13 06:30:12;;;;;;;1.90;1.73;;;5.60;99.90;;;;;;5093347;28;20640;-71
2021/10/13 06:32:38;;;;;;;3.13;2.80;;;5.80;99.90;;;;;;5093395;28;20404;-74
2021/10/13 06:35:04;;;;;;;2.97;1.60;;;5.80;99.90;;;;;;5093247;28;20415;-71
2021/10/13 06:37:29;;;;;;;2.43;1.90;;;5.90;99.90;;;;;;5096032;28;20243;-70
2021/10/13 06:39:55;;;;;;;3.10;2.10;;;5.90;99.90;;;;;;5085778;28;20804;-70
2021/10/13 06:42:20;;;;;;;4.23;2.90;;;5.90;99.90;;;;;;5087184;28;20166;-70
2021/10/13 06:44:46;;;;;;;1.80;1.70;;;6.00;99.90;;;;;;5092177;28;20636;-70
2021/10/13 06:47:11;;;;;;;2.97;2.63;;;6.10;99.90;;;;;;5101989;28;20198;-69
2021/10/13 06:49:36;;;;;;;2.83;2.60;;;6.20;99.90;;;;;;5093195;28;20248;-69
2021/10/13 06:52:02;;;;;;;5.50;2.30;;;6.30;99.90;;;;;;5092883;28;20671;-69
2021/10/13 06:54:27;;;;;;;3.67;2.53;;;6.40;99.90;;;;;;5112830;28;20211;-69
2021/10/13 06:56:53;;;;;;;4.30;3.00;;;6.50;99.90;;;;;;5072367;28;20232;-69
2021/10/13 06:59:18;;;;;;;3.10;2.80;;;6.30;99.90;;;;;;5072948;28;20187;-69
2021/10/13 07:01:44;;;;;;;5.70;3.13;;;6.50;99.90;;;;;;5072013;28;20210;-69
2021/10/13 07:04:09;;;;;;;3.33;2.10;;;6.60;99.90;;;;;;5071070;28;20175;-70
2021/10/13 07:06:35;;;;;;;3.10;2.80;;;6.80;99.90;;;;;;5072467;28;20198;-70
2021/10/13 07:09:00;;;;;;;4.40;2.00;;;6.80;99.90;;;;;;5072544;28;20674;-70
2021/10/13 07:11:26;;;;;;;2.57;2.27;;;6.70;99.90;;;;;;5110863;28;20168;-70
2021/10/13 07:13:51;;;;;;;2.93;2.60;;;6.70;99.90;;;;;;5093559;28;20252;-71
2021/10/13 07:16:17;;;;;;;5.00;2.30;;;6.60;99.90;;;;;;5092457;28;20211;-69
2021/10/13 07:18:42;;;;;;;2.40;1.40;;;6.70;99.90;;;;;;5092577;28;20195;-69
2021/10/13 07:21:08;;;;;;;2.50;1.93;;;6.80;99.90;;;;;;5092019;28;20195;-70
2021/10/13 07:23:33;;;;;;;2.93;1.83;;;6.60;99.90;;;;;;5092353;28;20160;-70
2021/10/13 07:25:59;;;;;;;2.40;2.07;;;6.70;99.90;;;;;;5092368;28;20503;-70
2021/10/13 07:28:26;;;;;;;7.70;2.80;;;6.80;99.90;;;;;;5092288;28;20166;-70
2021/10/13 07:30:52;;;;;;;6.50;2.90;;;6.70;99.90;;;;;;5092549;28;20171;-70
2021/10/13 07:33:17;;;;;;;2.70;2.10;;;6.70;99.90;;;;;;5092539;28;20528;-70
2021/10/13 07:35:43;;;;;;;2.27;1.80;;;6.90;99.90;;;;;;5092365;28;20171;-70
2021/10/13 07:38:12;;;;;;;4.10;1.93;;;7.00;99.90;;;;;;5092315;28;20553;-70
2021/10/13 07:40:39;;;;;;;2.87;2.53;;;7.10;99.90;;;;;;5071819;28;20230;-71
2021/10/13 07:43:05;;;;;;;2.23;2.03;;;7.10;99.90;;;;;;5071688;28;20410;-69
2021/10/13 07:45:31;;;;;;;2.70;1.50;;;7.10;99.90;;;;;;5090760;28;20416;-71
2021/10/13 07:47:56;;;;;;;2.43;1.53;;;7.20;99.90;;;;;;5091894;28;20193;-70
2021/10/13 07:50:22;;;;;;;2.20;1.77;;;7.30;99.90;;;;;;5092136;28;20465;-69
2021/10/13 07:52:47;;;;;;;3.53;1.87;;;7.10;99.90;;;;;;5092202;28;20199;-69
2021/10/13 07:55:13;;;;;;;3.43;2.13;;;7.10;99.90;;;;;;5091864;28;20209;-69
2021/10/13 07:57:39;;;;;;;6.17;2.27;;;7.10;99.90;;;;;;5091769;28;20566;-69
2021/10/13 08:00:05;;;;;;;2.70;2.50;;;6.90;99.90;;;;;;5091815;28;20516;-69
2021/10/13 08:02:31;;;;;;;2.13;1.70;;;7.00;99.90;;;;;;5085478;28;20503;-69
2021/10/13 08:04:57;;;;;;;3.73;1.80;;;7.00;99.90;;;;;;5079190;28;20450;-71
2021/10/13 08:07:22;;;;;;;1.50;1.40;;;7.10;99.90;;;;;;5086532;28;20767;-69
2021/10/13 08:09:48;;;;;;;2.20;2.00;;;7.30;99.90;;;;;;5090387;28;20176;-69
2021/10/13 08:12:13;;;;;;;1.47;1.37;;;9.10;99.90;;;;;;5071691;28;20188;-69
2021/10/13 08:14:38;;;;;;;1.93;1.20;;;9.50;99.90;;;;;;5093655;28;20191;-69
2021/10/13 08:17:04;;;;;;;1.77;1.67;;;10.80;99.90;;;;;;5095927;28;20186;-69
2021/10/13 08:19:29;;;;;;;3.47;1.73;;;10.40;99.90;;;;;;5095614;28;20185;-70
2021/10/13 08:21:55;;;;;;;2.80;2.30;;;10.10;99.90;;;;;;5095368;28;20238;-70
2021/10/13 08:24:20;;;;;;;4.20;2.07;;;9.20;99.90;;;;;;5095821;28;20665;-69
2021/10/13 08:26:46;;;;;;;2.53;2.33;;;9.80;99.90;;;;;;5087867;28;20204;-70
2021/10/13 08:29:11;;;;;;;1.77;1.60;;;10.90;99.90;;;;;;5075408;28;20646;-70
2021/10/13 08:31:37;;;;;;;2.93;1.77;;;10.80;99.90;;;;;;5075371;28;20172;-69
2021/10/13 08:34:03;;;;;;;3.30;1.90;;;10.80;99.90;;;;;;5075359;28;20225;-69
2021/10/13 08:36:28;;;;;;;2.40;2.13;;;10.70;99.90;;;;;;5075201;28;20695;-69
2021/10/13 08:38:55;;;;;;;2.77;1.50;;;11.50;99.90;;;;;;5075342;28;20404;-70
2021/10/13 08:41:21;;;;;;;1.90;1.80;;;11.20;99.90;;;;;;5095206;28;20194;-69
2021/10/13 08:44:26;;;;;;;;;;;;;;;;;;;;;
2021/10/13 08:46:55;;;;;;;3.60;1.97;;;11.60;99.90;;;;;;5107254;28;20198;-70
2021/10/13 08:49:20;;;;;;;1.60;1.50;;;11.60;99.90;;;;;;5115781;27;20484;-70
2021/10/13 08:51:46;;;;;;;2.00;1.50;;;12.30;99.90;;;;;;5115532;28;20416;-71
2021/10/13 08:54:17;;;;;;;4.17;2.10;;;12.50;99.90;;;;;;5115459;28;20361;-70
2021/10/13 08:56:43;;;;;;;2.27;2.07;;;12.80;99.90;;;;;;5115810;28;20270;-71
2021/10/13 08:59:08;;;;;;;1.67;1.43;;;13.00;99.90;;;;;;5115746;28;20428;-71
2021/10/13 09:01:47;;;;;;;2.43;2.00;;;13.10;99.90;;;;;;5115456;28;20457;-70
2021/10/13 09:04:13;;;;;;;2.10;1.90;;;12.40;99.90;;;;;;5100853;28;20177;-70
2021/10/13 09:06:39;;;;;;;1.57;1.40;;;13.10;99.90;;;;;;5093640;28;20428;-71
2021/10/13 09:09:08;;;;;;;3.10;1.93;;;14.30;99.90;;;;;;5095178;28;20401;-72
2021/10/13 09:11:36;;;;;;;1.33;1.23;;;14.10;99.90;;;;;;5078180;28;20169;-71
2021/10/13 09:14:14;;;;;;;1.67;1.20;;;12.80;99.90;;;;;;5074468;28;20402;-71
2021/10/13 09:16:59;;;;;;;1.63;1.40;;;13.90;99.90;;;;;;5074457;28;20412;-71
2021/10/13 09:19:35;;;;;;;2.17;1.50;;;12.50;99.90;;;;;;5074560;28;20417;-70
2021/10/13 09:22:02;;;;;;;1.60;1.13;;;12.60;99.90;;;;;;5077563;28;20413;-70
2021/10/13 09:24:30;;;;;;;2.00;1.70;;;13.10;99.90;;;;;;5092589;28;20401;-71
2021/10/13 09:26:57;;;;;;;2.23;1.50;;;13.10;99.90;;;;;;5094559;28;20427;-71
2021/10/13 09:29:24;;;;;;;2.10;1.83;;;12.90;99.90;;;;;;5094235;28;20403;-70
2021/10/13 09:31:57;;;;;;;1.60;1.50;;;12.70;99.90;;;;;;5094524;28;20433;-71
2021/10/13 09:34:23;;;;;;;1.70;1.30;;;12.40;99.90;;;;;;5094415;28;20775;-70
2021/10/13 09:37:01;;;;;;;2.40;1.53;;;11.70;99.90;;;;;;5094309;28;20427;-70
2021/10/13 09:39:31;;;;;;;2.20;1.77;;;11.70;99.90;;;;;;5094285;28;20717;-70
2021/10/13 09:42:03;;;;;;;1.73;1.50;;;11.60;99.90;;;;;;5094735;28;20409;-70
2021/10/13 09:44:35;;;;;;;1.80;1.60;;;12.00;99.90;;;;;;5093903;28;20400;-70
2021/10/13 09:47:06;;;;;;;2.30;1.60;;;12.10;99.90;;;;;;5094016;28;20442;-69
2021/10/13 09:49:42;;;;;;;1.23;1.13;;;11.80;99.90;;;;;;5094126;28;20704;-70
2021/10/13 09:52:13;;;;;;;1.70;1.60;;;12.00;99.90;;;;;;5093944;28;20814;-70
2021/10/13 09:54:41;;;;;;;1.73;1.40;;;11.80;99.90;;;;;;5094024;28;20411;-70
2021/10/13 09:57:23;;;;;;;1.57;1.30;;;12.10;99.90;;;;;;5094320;28;20423;-70
2021/10/13 10:00:11;;;;;;;1.20;1.10;;;11.90;99.90;;;;;;5093964;28;20526;-69
2021/10/13 10:02:46;;;;;;;1.50;1.40;;;11.60;99.90;;;;;;5092586;28;20428;-69
2021/10/13 10:05:18;;;;;;;1.47;1.37;;;11.70;99.90;;;;;;5093827;28;20904;-68
2021/10/13 10:07:59;;;;;;;1.57;1.43;;;11.50;99.90;;;;;;5093865;28;20466;-68
2021/10/13 10:10:25;;;;;;;1.57;1.47;;;11.80;99.90;;;;;;5086735;28;20413;-69
2021/10/13 10:13:05;;;;;;;1.90;1.50;;;11.90;99.90;;;;;;5073408;28;20424;-69
2021/10/13 10:15:36;;;;;;;2.73;1.20;;;11.70;99.90;;;;;;5073496;28;20197;-70
2021/10/13 10:18:22;;;;;;;1.67;1.10;;;11.60;99.90;;;;;;5073482;28;20412;-68
2021/10/13 10:20:47;;;;;;;1.77;1.30;;;11.70;99.90;;;;;;5073291;28;20872;-70
2021/10/13 10:23:30;;;;;;;1.70;1.60;;;11.50;99.90;;;;;;5086445;28;20411;-70
2021/10/13 10:25:59;;;;;;;2.13;1.40;;;11.20;99.90;;;;;;5093439;28;20304;-73
2021/10/13 10:28:49;;;;;;;3.50;1.63;;;11.00;99.90;;;;;;5093418;28;20403;-71
2021/10/13 10:31:27;;;;;;;1.90;1.80;;;11.00;99.90;;;;;;5093272;28;20407;-70
2021/10/13 10:34:12;;;;;;;2.33;2.07;;;11.30;99.90;;;;;;5093213;28;20482;-70
2021/10/13 10:36:40;;;;;;;2.90;1.70;;;11.60;99.90;;;;;;5092311;28;20472;-70
2021/10/13 10:39:10;;;;;;;1.97;1.37;;;11.70;99.90;;;;;;5092980;28;20403;-70
2021/10/13 10:41:50;;;;;;;3.17;1.63;;;11.80;99.90;;;;;;5093061;28;20455;-70
2021/10/13 10:44:46;;;;;;;2.17;1.97;;;11.60;99.90;;;;;;5090560;28;20396;-70
2021/10/13 10:47:16;;;;;;;1.33;1.23;;;11.70;99.90;;;;;;5085593;28;20435;-70
2021/10/13 10:49:52;;;;;;;2.13;1.70;;;11.70;99.90;;;;;;5093023;28;20902;-70
2021/10/13 10:52:27;;;;;;;1.90;1.60;;;11.60;99.90;;;;;;5092961;28;20399;-70
2021/10/13 10:54:53;;;;;;;2.10;1.60;;;11.20;99.90;;;;;;5092536;28;20421;-70
2021/10/13 10:57:33;;;;;;;2.30;1.87;;;11.10;99.90;;;;;;5092769;28;20423;-70
2021/10/13 11:00:00;;;;;;;3.27;2.73;;;11.20;99.90;;;;;;5092772;28;20538;-70
2021/10/13 11:02:26;;;;;;;1.03;0.93;;;11.30;99.90;;;;;;5093228;28;20414;-71
2021/10/13 11:05:08;;;;;;;1.97;1.77;;;11.40;99.90;;;;;;5092437;28;20403;-70
2021/10/13 11:07:38;;;;;;;3.03;1.30;;;11.40;99.90;;;;;;5093013;28;20517;-69
2021/10/13 11:10:07;;;;;;;1.60;1.30;;;11.60;99.90;;;;;;5088510;28;20404;-70
2021/10/13 11:12:45;;;;;;;1.60;1.50;;;11.80;99.90;;;;;;5072194;28;20400;-70
2021/10/13 11:15:11;;;;;;;1.60;1.50;;;12.10;99.90;;;;;;5072338;28;20431;-70
2021/10/13 11:17:36;;;;;;;2.73;1.50;;;12.00;99.90;;;;;;5072400;28;20428;-70
2021/10/13 11:20:09;;;;;;;1.73;1.30;;;12.20;99.90;;;;;;5072504;28;20213;-70
2021/10/13 11:22:35;;;;;;;1.87;1.70;;;12.10;99.90;;;;;;5072374;28;20166;-70
2021/10/13 11:25:17;;;;;;;1.90;1.13;;;12.00;99.90;;;;;;5072076;28;20412;-70
2021/10/13 11:27:55;;;;;;;1.20;1.00;;;12.40;99.90;;;;;;5072099;28;20190;-70
2021/10/13 11:30:21;;;;;;;1.20;1.00;;;12.70;99.90;;;;;;5072059;28;20419;-72
2021/10/13 11:32:47;;;;;;;2.83;1.20;;;12.50;99.90;;;;;;5072087;28;20413;-72
2021/10/13 11:35:16;;;;;;;1.30;1.00;;;12.30;99.90;;;;;;5071941;28;20257;-72
2021/10/13 11:37:50;;;;;;;1.50;1.30;;;12.30;99.90;;;;;;5072063;28;20237;-71
2021/10/13 11:40:17;;;;;;;2.10;1.30;;;12.20;99.90;;;;;;5083223;28;20486;-71
2021/10/13 11:42:43;;;;;;;1.90;1.30;;;12.20;99.90;;;;;;5092043;28;20461;-71
2021/10/13 11:45:14;;;;;;;1.40;1.30;;;12.50;99.90;;;;;;5091847;28;20412;-72
2021/10/13 11:47:40;;;;;;;1.90;1.37;;;12.80;99.90;;;;;;5091752;28;20427;-71
2021/10/13 11:50:10;;;;;;;1.40;1.23;;;12.10;99.90;;;;;;5092114;28;20468;-71
2021/10/13 11:52:36;;;;;;;2.13;1.33;;;12.20;99.90;;;;;;5091930;28;20180;-71
2021/10/13 11:55:07;;;;;;;1.30;1.13;;;12.90;99.90;;;;;;5091857;28;20404;-71
2021/10/13 11:57:33;;;;;;;2.97;1.77;;;12.80;99.90;;;;;;5091862;28;20420;-71
2021/10/13 12:00:18;;;;;;;1.70;1.13;;;12.60;99.90;;;;;;5091802;28;20458;-71
2021/10/13 12:03:07;;;;;;;2.10;1.87;;;12.60;99.90;;;;;;5091505;28;20418;-71
2021/10/13 12:05:40;;;;;;;1.87;1.00;;;12.60;99.90;;;;;;5091025;28;20553;-71
2021/10/13 12:08:09;;;;;;;1.20;1.00;;;12.50;99.90;;;;;;5091620;28;20404;-71
2021/10/13 12:10:43;;;;;;;2.07;1.70;;;12.30;99.90;;;;;;5082809;28;20409;-71
2021/10/13 12:13:14;;;;;;;1.30;1.20;;;12.70;99.90;;;;;;5071188;28;20416;-71
2021/10/13 12:15:44;;;;;;;1.00;0.90;;;12.60;99.90;;;;;;5071070;28;20424;-71
2021/10/13 12:18:21;;;;;;;1.33;1.03;;;12.60;99.90;;;;;;5070929;28;20563;-71
2021/10/13 12:21:10;;;;;;;1.23;1.13;;;12.80;99.90;;;;;;5071398;28;20928;-72
2021/10/13 12:23:44;;;;;;;1.30;1.17;;;12.90;99.90;;;;;;5070957;28;20397;-71
2021/10/13 12:26:15;;;;;;;2.40;1.47;;;12.80;99.90;;;;;;5071264;28;20416;-71
2021/10/13 12:28:41;;;;;;;1.50;1.40;;;13.00;99.90;;;;;;5071066;28;20400;-71
2021/10/13 12:31:09;;;;;;;1.50;1.10;;;13.30;99.90;;;;;;5071003;28;20751;-71
2021/10/13 12:33:45;;;;;;;2.27;1.97;;;13.40;99.90;;;;;;5071044;28;20203;-71
2021/10/13 12:36:29;;;;;;;1.63;1.30;;;13.30;99.90;;;;;;5082696;28;20946;-71
2021/10/13 12:38:56;;;;;;;1.57;1.47;;;13.10;99.90;;;;;;5091387;28;20882;-72
2021/10/13 12:41:38;;;;;;;1.10;1.00;;;12.50;99.90;;;;;;5091124;28;20455;-72
2021/10/13 12:44:23;;;;;;;1.17;1.07;;;12.10;99.90;;;;;;5091070;28;20427;-71
2021/10/13 12:47:06;;;;;;;1.03;0.93;;;12.00;99.90;;;;;;5090996;28;20940;-71
2021/10/13 12:49:34;;;;;;;1.70;1.30;;;12.20;99.90;;;;;;5091172;28;20418;-71
2021/10/13 12:52:06;;;;;;;1.57;1.10;;;12.30;99.90;;;;;;5091114;28;20403;-71
2021/10/13 12:54:45;;;;;;;1.60;1.50;;;12.30;99.90;;;;;;5091008;28;20411;-71
2021/10/13 12:57:18;;;;;;;1.30;1.17;;;12.50;99.90;;;;;;5091041;28;20423;-71
2021/10/13 12:59:45;;;;;;;1.40;1.30;;;12.50;99.90;;;;;;5091791;28;20399;-71
2021/10/13 13:02:10;;;;;;;2.03;1.17;;;12.60;99.90;;;;;;5094735;28;20464;-71
2021/10/13 13:04:36;;;;;;;2.60;1.30;;;12.80;99.90;;;;;;5094644;28;20407;-71
2021/10/13 13:07:09;;;;;;;2.00;1.77;;;13.00;99.90;;;;;;5094763;28;20342;-71